Time;durP1;ratioP1;P1;durP2;ratioP2;P2;SDS_P1;SDS_P2;PMS_P1;PMS_P2;Temp;Humidity;BMP_temperature;BMP_pressure;BME280_temperature;BME280_humidity;BME280_pressure;Samples;Min_cycle;Max_cycle;Signal;HPM_P1;HPM_P2
2022/09/25 00:00:59;;;;;;;13.45;4.00;;;;;;;;;;5070238;28;20449;-76
2022/09/25 00:03:26;;;;;;;12.80;4.25;;;;;;;;;;5070530;28;20047;-76
2022/09/25 00:05:54;;;;;;;8.63;3.47;;;;;;;;;;5070318;28;20081;-75
2022/09/25 00:08:20;;;;;;;13.82;4.28;;;;;;;;;;5069290;28;20646;-75
2022/09/25 00:10:48;;;;;;;15.82;7.45;;;;;;;;;;5069705;28;20020;-76
2022/09/25 00:13:15;;;;;;;20.75;10.25;;;;;;;;;;5070058;28;20037;-76
2022/09/25 00:15:48;;;;;;;18.48;9.07;;;;;;;;;;5070325;28;20025;-76
2022/09/25 00:19:48;;;;;;;23.92;13.00;;;;;;;;;;5069777;28;20035;-76
2022/09/25 00:21:03;;;;;;;20.55;9.65;;;;;;;;;;5069615;28;20392;-76
2022/09/25 00:23:29;;;;;;;17.15;9.63;;;;;;;;;;5069897;28;20024;-76
2022/09/25 00:25:55;;;;;;;18.40;6.78;;;;;;;;;;5069076;28;20519;-76
2022/09/25 00:28:22;;;;;;;11.45;3.65;;;;;;;;;;5069458;28;20035;-76
2022/09/25 00:30:48;;;;;;;10.75;4.63;;;;;;;;;;5069841;28;20024;-76
2022/09/25 00:33:14;;;;;;;12.90;6.03;;;;;;;;;;5069393;28;20543;-76
2022/09/25 00:35:43;;;;;;;12.07;3.80;;;;;;;;;;5053523;28;20052;-75
2022/09/25 00:38:09;;;;;;;18.45;4.50;;;;;;;;;;5051317;28;20029;-76
2022/09/25 00:40:35;;;;;;;8.90;3.75;;;;;;;;;;5050666;28;20033;-76
2022/09/25 00:43:00;;;;;;;6.07;1.95;;;;;;;;;;5051107;28;20029;-76
2022/09/25 00:45:27;;;;;;;9.85;2.67;;;;;;;;;;5048994;28;20044;-76
2022/09/25 00:48:00;;;;;;;10.48;2.13;;;;;;;;;;5049892;28;20060;-75
2022/09/25 00:50:37;;;;;;;9.57;2.40;;;;;;;;;;5049523;28;20082;-76
2022/09/25 00:53:06;;;;;;;9.93;3.33;;;;;;;;;;5064263;28;20086;-76
2022/09/25 00:55:33;;;;;;;7.32;2.90;;;;;;;;;;5067807;28;20031;-75
2022/09/25 00:58:01;;;;;;;6.05;2.63;;;;;;;;;;5069303;28;20062;-75
2022/09/25 01:00:27;;;;;;;9.93;2.50;;;;;;;;;;5069450;28;20025;-74
2022/09/25 01:02:54;;;;;;;7.55;1.98;;;;;;;;;;5068136;28;20104;-75
2022/09/25 01:05:23;;;;;;;10.63;2.28;;;;;;;;;;5069293;28;20109;-74
2022/09/25 01:07:50;;;;;;;8.68;3.15;;;;;;;;;;5068902;28;20070;-75
2022/09/25 01:10:16;;;;;;;8.25;2.08;;;;;;;;;;5069623;28;20063;-75
2022/09/25 01:12:47;;;;;;;8.57;3.25;;;;;;;;;;5069171;28;20079;-76
2022/09/25 01:15:14;;;;;;;12.93;3.40;;;;;;;;;;5067646;28;20060;-76
2022/09/25 01:18:09;;;;;;;9.23;3.53;;;;;;;;;;5069105;28;20111;-76
2022/09/25 01:20:41;;;;;;;7.28;2.53;;;;;;;;;;5067937;28;20052;-76
2022/09/25 01:23:17;;;;;;;9.57;2.63;;;;;;;;;;5068629;28;20773;-76
2022/09/25 01:26:02;;;;;;;13.30;3.80;;;;;;;;;;5069087;28;20083;-76
2022/09/25 01:28:28;;;;;;;12.25;2.97;;;;;;;;;;5068417;28;20418;-75
2022/09/25 01:30:58;;;;;;;10.23;2.80;;;;;;;;;;5069490;28;20021;-76
2022/09/25 01:33:29;;;;;;;10.70;2.55;;;;;;;;;;5068967;28;20512;-76
2022/09/25 01:36:02;;;;;;;10.15;2.78;;;;;;;;;;5067774;28;20115;-76
2022/09/25 01:38:39;;;;;;;9.07;3.17;;;;;;;;;;5070280;28;20036;-76
2022/09/25 01:41:14;;;;;;;8.20;2.80;;;;;;;;;;5072210;28;20114;-75
2022/09/25 01:43:40;;;;;;;8.48;2.45;;;;;;;;;;5073057;28;20021;-75
2022/09/25 01:46:17;;;;;;;9.02;3.10;;;;;;;;;;5072620;28;20475;-75
2022/09/25 01:48:45;;;;;;;10.70;3.35;;;;;;;;;;5071541;28;20032;-76
2022/09/25 01:51:31;;;;;;;11.77;3.95;;;;;;;;;;5072451;28;20028;-75
2022/09/25 01:54:01;;;;;;;7.50;3.28;;;;;;;;;;5071772;28;20041;-75
2022/09/25 01:56:31;;;;;;;13.65;4.70;;;;;;;;;;5072909;28;20028;-76
2022/09/25 01:59:05;;;;;;;14.98;3.47;;;;;;;;;;5072693;28;20016;-76
2022/09/25 02:01:33;;;;;;;15.95;4.47;;;;;;;;;;5072466;28;20487;-76
2022/09/25 02:04:06;;;;;;;13.50;4.25;;;;;;;;;;5072021;28;20028;-75
2022/09/25 02:06:33;;;;;;;13.55;4.35;;;;;;;;;;5071174;28;20492;-74
2022/09/25 02:09:02;;;;;;;12.20;3.20;;;;;;;;;;5072145;28;20082;-75
2022/09/25 02:11:32;;;;;;;7.43;3.10;;;;;;;;;;5071798;28;20028;-76
2022/09/25 02:14:08;;;;;;;12.32;3.28;;;;;;;;;;5070115;28;20570;-75
2022/09/25 02:16:36;;;;;;;7.72;2.95;;;;;;;;;;5071527;28;20037;-75
2022/09/25 02:21:46;;;;;;;12.77;3.63;;;;;;;;;;5070620;28;20055;-76
2022/09/25 02:24:21;;;;;;;13.02;3.92;;;;;;;;;;5070897;28;20036;-75
2022/09/25 02:26:49;;;;;;;10.35;3.35;;;;;;;;;;5071054;28;20084;-75
2022/09/25 02:29:15;;;;;;;9.30;3.60;;;;;;;;;;5071097;28;20872;-76
2022/09/25 02:31:53;;;;;;;10.65;3.40;;;;;;;;;;5071487;28;20033;-76
2022/09/25 02:34:19;;;;;;;9.23;3.15;;;;;;;;;;5065276;28;20094;-76
2022/09/25 02:36:45;;;;;;;12.68;4.15;;;;;;;;;;5050753;28;20032;-76
2022/09/25 02:39:14;;;;;;;9.07;3.67;;;;;;;;;;5050556;28;20029;-75
2022/09/25 02:41:46;;;;;;;9.40;4.03;;;;;;;;;;5050547;28;20072;-75
2022/09/25 02:44:30;;;;;;;12.60;3.50;;;;;;;;;;5051363;28;20074;-75
2022/09/25 02:47:03;;;;;;;14.00;3.67;;;;;;;;;;5051992;28;20044;-75
2022/09/25 02:49:30;;;;;;;8.23;2.95;;;;;;;;;;5051596;28;20068;-75
2022/09/25 02:52:02;;;;;;;10.50;3.15;;;;;;;;;;5053186;28;20033;-75
2022/09/25 02:54:37;;;;;;;14.90;5.55;;;;;;;;;;5052246;28;20115;-75
2022/09/25 02:57:26;;;;;;;9.45;4.00;;;;;;;;;;5051738;28;20025;-75
2022/09/25 02:59:54;;;;;;;10.82;4.15;;;;;;;;;;5051439;28;20108;-74
2022/09/25 03:02:21;;;;;;;12.38;3.05;;;;;;;;;;5051075;28;20450;-75
2022/09/25 03:04:49;;;;;;;9.55;3.78;;;;;;;;;;5051705;28;20079;-74
2022/09/25 03:07:16;;;;;;;9.90;3.63;;;;;;;;;;5051505;28;20844;-75
2022/09/25 03:09:45;;;;;;;8.75;3.95;;;;;;;;;;5050945;28;20096;-76
2022/09/25 03:12:11;;;;;;;7.70;2.72;;;;;;;;;;5051948;28;20769;-76
2022/09/25 03:14:37;;;;;;;12.07;3.78;;;;;;;;;;5051492;28;20111;-75
2022/09/25 03:17:04;;;;;;;10.35;3.72;;;;;;;;;;5051152;28;20151;-75
2022/09/25 03:19:30;;;;;;;8.38;3.20;;;;;;;;;;5050269;28;20381;-76
2022/09/25 03:21:56;;;;;;;7.47;2.40;;;;;;;;;;5049441;28;20075;-76
2022/09/25 03:24:24;;;;;;;8.40;3.25;;;;;;;;;;5051078;28;20056;-75
2022/09/25 03:26:50;;;;;;;9.70;2.97;;;;;;;;;;5051186;28;20021;-75
2022/09/25 03:29:16;;;;;;;11.15;2.35;;;;;;;;;;5050955;28;20029;-75
2022/09/25 03:31:44;;;;;;;8.63;2.85;;;;;;;;;;5050905;28;20463;-75
2022/09/25 03:34:11;;;;;;;9.05;2.47;;;;;;;;;;5055367;28;20486;-74
2022/09/25 03:36:37;;;;;;;9.88;2.88;;;;;;;;;;5070922;28;20066;-75
2022/09/25 03:39:04;;;;;;;9.80;3.42;;;;;;;;;;5070441;28;20132;-75
2022/09/25 03:41:31;;;;;;;7.20;2.25;;;;;;;;;;5070864;28;20036;-75
2022/09/25 03:43:57;;;;;;;8.10;3.15;;;;;;;;;;5070200;28;20028;-75
2022/09/25 03:46:24;;;;;;;8.57;2.33;;;;;;;;;;5070680;28;20033;-75
2022/09/25 03:48:51;;;;;;;13.57;3.45;;;;;;;;;;5069287;28;20067;-75
2022/09/25 03:51:18;;;;;;;8.50;2.72;;;;;;;;;;5070571;28;20036;-76
2022/09/25 03:53:44;;;;;;;11.23;3.95;;;;;;;;;;5068804;28;20024;-76
2022/09/25 03:56:15;;;;;;;9.10;3.33;;;;;;;;;;5070500;28;20494;-76
2022/09/25 03:58:42;;;;;;;10.30;3.85;;;;;;;;;;5068627;28;20027;-75
2022/09/25 04:01:09;;;;;;;16.15;3.30;;;;;;;;;;5068522;28;20040;-76
2022/09/25 04:03:36;;;;;;;8.13;3.22;;;;;;;;;;5069178;28;20561;-75
2022/09/25 04:06:06;;;;;;;9.85;3.10;;;;;;;;;;5068769;28;20380;-75
2022/09/25 04:08:33;;;;;;;10.30;3.47;;;;;;;;;;5069461;28;20074;-75
2022/09/25 04:10:59;;;;;;;9.13;3.22;;;;;;;;;;5068920;28;20028;-76
2022/09/25 04:13:28;;;;;;;11.85;4.00;;;;;;;;;;5069189;28;20029;-75
2022/09/25 04:15:55;;;;;;;7.22;2.85;;;;;;;;;;5069333;28;20071;-75
2022/09/25 04:18:21;;;;;;;11.50;2.97;;;;;;;;;;5068946;28;20387;-75
2022/09/25 04:20:47;;;;;;;6.10;3.20;;;;;;;;;;5067820;28;20113;-74
2022/09/25 04:23:13;;;;;;;9.88;2.92;;;;;;;;;;5068932;28;20052;-74
2022/09/25 04:25:39;;;;;;;6.68;2.90;;;;;;;;;;5068758;28;20107;-75
2022/09/25 04:28:05;;;;;;;12.48;3.60;;;;;;;;;;5068682;28;20028;-75
2022/09/25 04:30:32;;;;;;;11.60;3.83;;;;;;;;;;5068807;28;20048;-76
2022/09/25 04:35:43;;;;;;;8.05;3.55;;;;;;;;;;5068638;28;20916;-75
2022/09/25 04:38:09;;;;;;;13.43;3.65;;;;;;;;;;5069148;28;20036;-75
2022/09/25 04:40:36;;;;;;;7.68;3.95;;;;;;;;;;5068796;28;20040;-76
2022/09/25 04:43:03;;;;;;;10.93;3.78;;;;;;;;;;5067814;28;20173;-76
2022/09/25 04:45:29;;;;;;;8.05;3.33;;;;;;;;;;5068770;28;20040;-76
2022/09/25 04:47:58;;;;;;;9.65;3.38;;;;;;;;;;5068646;28;20475;-74
2022/09/25 04:50:24;;;;;;;12.10;3.70;;;;;;;;;;5068818;28;20036;-75
2022/09/25 04:52:50;;;;;;;10.18;4.22;;;;;;;;;;5068648;28;20406;-76
2022/09/25 04:55:17;;;;;;;9.75;4.30;;;;;;;;;;5069537;28;20016;-75
2022/09/25 04:57:44;;;;;;;9.88;4.18;;;;;;;;;;5070641;28;20041;-76
2022/09/25 05:00:10;;;;;;;9.60;4.07;;;;;;;;;;5068994;28;20035;-75
2022/09/25 05:02:36;;;;;;;8.63;3.58;;;;;;;;;;5067240;28;20024;-77
2022/09/25 05:05:02;;;;;;;9.70;3.83;;;;;;;;;;5068713;28;20037;-75
2022/09/25 05:07:29;;;;;;;9.82;3.72;;;;;;;;;;5068865;28;20490;-76
2022/09/25 05:09:55;;;;;;;9.75;4.68;;;;;;;;;;5068295;28;20819;-76
2022/09/25 05:12:21;;;;;;;17.02;5.35;;;;;;;;;;5068701;28;20393;-76
2022/09/25 05:14:47;;;;;;;11.80;4.43;;;;;;;;;;5071799;28;20781;-76
2022/09/25 05:17:13;;;;;;;12.18;4.90;;;;;;;;;;5071793;28;20045;-76
2022/09/25 05:19:39;;;;;;;11.80;4.53;;;;;;;;;;5071956;28;20033;-76
2022/09/25 05:22:11;;;;;;;11.20;5.07;;;;;;;;;;5072329;28;20056;-76
2022/09/25 05:24:38;;;;;;;12.50;4.30;;;;;;;;;;5072195;28;20028;-76
2022/09/25 05:27:04;;;;;;;8.98;4.88;;;;;;;;;;5072251;28;20016;-77
2022/09/25 05:29:30;;;;;;;8.45;4.50;;;;;;;;;;5073200;28;20032;-76
2022/09/25 05:31:56;;;;;;;8.80;4.03;;;;;;;;;;5073340;28;20498;-75
2022/09/25 05:34:22;;;;;;;6.50;3.80;;;;;;;;;;5073043;28;20025;-76
2022/09/25 05:36:48;;;;;;;9.55;5.00;;;;;;;;;;5072529;28;20027;-75
2022/09/25 05:39:14;;;;;;;9.15;4.97;;;;;;;;;;5072873;28;20391;-75
2022/09/25 05:41:40;;;;;;;7.18;5.05;;;;;;;;;;5073157;28;20054;-76
2022/09/25 05:44:08;;;;;;;8.15;5.13;;;;;;;;;;5072653;28;20028;-75
2022/09/25 05:46:35;;;;;;;10.00;4.80;;;;;;;;;;5071598;28;20033;-75
2022/09/25 05:49:01;;;;;;;9.15;4.25;;;;;;;;;;5072757;28;20034;-76
2022/09/25 05:51:29;;;;;;;11.85;5.68;;;;;;;;;;5071812;28;20037;-75
2022/09/25 05:53:55;;;;;;;7.57;4.80;;;;;;;;;;5071998;28;20032;-76
2022/09/25 05:56:24;;;;;;;11.18;5.30;;;;;;;;;;5053671;28;20025;-76
2022/09/25 05:58:51;;;;;;;6.97;4.30;;;;;;;;;;5054353;28;20032;-75
2022/09/25 06:01:18;;;;;;;8.23;4.38;;;;;;;;;;5051659;28;20025;-76
2022/09/25 06:03:44;;;;;;;6.30;3.78;;;;;;;;;;5050795;28;20032;-75
2022/09/25 06:06:11;;;;;;;8.98;3.95;;;;;;;;;;5053372;28;20025;-75
2022/09/25 06:08:37;;;;;;;7.80;4.78;;;;;;;;;;5052700;28;20138;-75
2022/09/25 06:11:05;;;;;;;6.00;4.13;;;;;;;;;;5051349;28;20600;-76
2022/09/25 06:13:33;;;;;;;11.20;5.07;;;;;;;;;;5052686;28;20025;-76
2022/09/25 06:15:59;;;;;;;7.65;4.18;;;;;;;;;;5050549;28;20560;-75
2022/09/25 06:18:26;;;;;;;12.15;4.65;;;;;;;;;;5051887;28;20021;-75
2022/09/25 06:20:57;;;;;;;6.68;2.90;;;;;;;;;;5051649;28;20444;-76
2022/09/25 06:23:23;;;;;;;6.57;3.65;;;;;;;;;;5060009;28;20050;-77
2022/09/25 06:25:49;;;;;;;7.07;4.13;;;;;;;;;;5058650;28;20017;-76
2022/09/25 06:28:15;;;;;;;8.38;3.78;;;;;;;;;;5058559;28;20071;-76
2022/09/25 06:30:42;;;;;;;8.88;3.25;;;;;;;;;;5064889;28;20631;-77
2022/09/25 06:33:13;;;;;;;5.25;2.70;;;;;;;;;;5061353;28;20021;-77
2022/09/25 06:35:43;;;;;;;7.13;2.95;;;;;;;;;;5061359;28;20083;-77
2022/09/25 06:38:09;;;;;;;9.70;3.08;;;;;;;;;;5057945;28;20102;-76
2022/09/25 06:40:36;;;;;;;3.78;2.00;;;;;;;;;;5060663;28;20040;-77
2022/09/25 06:43:04;;;;;;;6.70;2.78;;;;;;;;;;5059941;28;20024;-77
2022/09/25 06:45:33;;;;;;;7.68;2.75;;;;;;;;;;5057718;28;20107;-77
2022/09/25 06:48:03;;;;;;;5.73;2.20;;;;;;;;;;5061446;28;20025;-77
2022/09/25 06:50:32;;;;;;;7.50;2.08;;;;;;;;;;5059475;28;20064;-75
2022/09/25 06:52:59;;;;;;;4.32;1.77;;;;;;;;;;5060049;28;20078;-76
2022/09/25 06:55:25;;;;;;;5.68;2.40;;;;;;;;;;5059401;28;20049;-75
2022/09/25 06:57:51;;;;;;;5.78;1.90;;;;;;;;;;5058465;28;20016;-74
2022/09/25 07:00:17;;;;;;;3.10;1.50;;;;;;;;;;5060913;28;20021;-75
2022/09/25 07:05:28;;;;;;;5.70;1.70;;;;;;;;;;5059459;28;20043;-76
2022/09/25 07:07:54;;;;;;;4.35;1.77;;;;;;;;;;5061606;28;20032;-76
2022/09/25 07:10:21;;;;;;;6.20;2.03;;;;;;;;;;5058614;28;20029;-76
2022/09/25 07:12:47;;;;;;;5.22;1.40;;;;;;;;;;5058951;28;20036;-76
2022/09/25 07:15:14;;;;;;;4.88;1.70;;;;;;;;;;5060079;28;20029;-76
2022/09/25 07:17:44;;;;;;;4.75;2.00;;;;;;;;;;5057599;28;20100;-76
2022/09/25 07:20:14;;;;;;;;;;;;;;;;;;5059521;28;20039;-76
2022/09/25 07:22:40;;;;;;;6.20;1.60;;;;;;;;;;5057615;28;19927;-76
2022/09/25 07:25:07;;;;;;;4.00;1.20;;;;;;;;;;5059127;28;20021;-76
2022/09/25 07:27:33;;;;;;;4.03;1.30;;;;;;;;;;5057163;28;20024;-76
2022/09/25 07:29:59;;;;;;;8.18;1.98;;;;;;;;;;5057189;28;20037;-76
2022/09/25 07:32:26;;;;;;;6.20;1.60;;;;;;;;;;5060268;28;20455;-77
2022/09/25 07:34:52;;;;;;;6.50;1.80;;;;;;;;;;5055967;28;20029;-78
2022/09/25 07:37:21;;;;;;;3.75;1.50;;;;;;;;;;5057871;28;20040;-75
2022/09/25 07:39:47;;;;;;;4.47;1.38;;;;;;;;;;5053978;28;20078;-76
2022/09/25 07:42:13;;;;;;;2.53;1.40;;;;;;;;;;5058027;28;20771;-77
2022/09/25 07:44:39;;;;;;;4.78;1.42;;;;;;;;;;5053650;28;20033;-72
2022/09/25 07:47:07;;;;;;;6.47;1.17;;;;;;;;;;5054792;28;20025;-74
2022/09/25 07:49:33;;;;;;;6.72;1.58;;;;;;;;;;5058428;28;20032;-73
2022/09/25 07:52:00;;;;;;;1.95;0.95;;;;;;;;;;5068575;28;20047;-73
2022/09/25 07:54:26;;;;;;;5.43;1.80;;;;;;;;;;5055817;28;20407;-73
2022/09/25 07:56:52;;;;;;;3.70;1.25;;;;;;;;;;5048455;28;20047;-73
2022/09/25 07:59:18;;;;;;;5.18;1.30;;;;;;;;;;5048652;28;20833;-73
2022/09/25 08:01:44;;;;;;;4.38;1.10;;;;;;;;;;5048485;28;20038;-73
2022/09/25 08:04:10;;;;;;;4.68;1.35;;;;;;;;;;5048504;28;20395;-73
2022/09/25 08:06:37;;;;;;;4.63;1.25;;;;;;;;;;5048236;28;20033;-73
2022/09/25 08:09:04;;;;;;;4.78;1.48;;;;;;;;;;5048460;28;20035;-74
2022/09/25 08:11:30;;;;;;;5.90;1.38;;;;;;;;;;5049119;28;20519;-73
2022/09/25 08:13:57;;;;;;;3.72;1.48;;;;;;;;;;5048875;28;20025;-73
2022/09/25 08:16:24;;;;;;;6.93;2.17;;;;;;;;;;5053068;28;20017;-74
2022/09/25 08:18:50;;;;;;;6.68;2.28;;;;;;;;;;5054249;28;20935;-74
2022/09/25 08:21:17;;;;;;;6.47;2.20;;;;;;;;;;5056628;28;20029;-75
2022/09/25 08:23:44;;;;;;;6.70;2.15;;;;;;;;;;5055159;28;20048;-75
2022/09/25 08:26:10;;;;;;;4.13;1.60;;;;;;;;;;5056178;28;20027;-76
2022/09/25 08:28:36;;;;;;;7.55;2.70;;;;;;;;;;5054117;28;20020;-76
2022/09/25 08:31:03;;;;;;;6.72;1.92;;;;;;;;;;5048751;28;20099;-74
2022/09/25 08:33:29;;;;;;;6.18;2.33;;;;;;;;;;5053352;28;20115;-76
2022/09/25 08:35:56;;;;;;;6.07;2.90;;;;;;;;;;5053333;28;20036;-75
2022/09/25 08:38:25;;;;;;;8.90;3.40;;;;;;;;;;5055419;28;20028;-76
2022/09/25 08:40:56;;;;;;;10.60;2.58;;;;;;;;;;5053080;28;20029;-75
2022/09/25 08:43:23;;;;;;;8.35;2.75;;;;;;;;;;5056906;28;20044;-75
2022/09/25 08:49:08;;;;;;;8.40;2.75;;;;;;;;;;5053565;28;20052;-74
2022/09/25 08:51:47;;;;;;;5.43;2.17;;;;;;;;;;5057865;28;20040;-75
2022/09/25 08:54:19;;;;;;;7.43;1.70;;;;;;;;;;5055757;28;20029;-75
2022/09/25 08:56:49;;;;;;;7.05;2.05;;;;;;;;;;5053865;28;20029;-76
2022/09/25 08:59:22;;;;;;;4.43;1.60;;;;;;;;;;5050769;28;20029;-77
2022/09/25 09:01:52;;;;;;;10.90;1.48;;;;;;;;;;5054742;28;20017;-74
2022/09/25 09:04:26;;;;;;;6.10;1.08;;;;;;;;;;5053064;28;20029;-77
2022/09/25 09:06:55;;;;;;;7.43;1.45;;;;;;;;;;5060625;28;20026;-78
2022/09/25 09:09:26;;;;;;;3.88;1.10;;;;;;;;;;5055838;28;20398;-78
2022/09/25 09:12:03;;;;;;;5.88;1.20;;;;;;;;;;5055934;28;20090;-77
2022/09/25 09:14:31;;;;;;;4.93;1.17;;;;;;;;;;5053905;28;20090;-77
2022/09/25 09:17:07;;;;;;;6.00;1.30;;;;;;;;;;5053831;28;20388;-76
2022/09/25 09:19:34;;;;;;;6.47;1.67;;;;;;;;;;5059483;28;20035;-78
2022/09/25 09:22:10;;;;;;;8.27;1.48;;;;;;;;;;5057362;28;20077;-77
2022/09/25 09:24:36;;;;;;;6.97;1.02;;;;;;;;;;5051138;28;20078;-78
2022/09/25 09:27:14;;;;;;;6.28;1.88;;;;;;;;;;5055654;28;20512;-77
2022/09/25 09:29:58;;;;;;;4.93;1.25;;;;;;;;;;5061455;28;20020;-79
2022/09/25 09:32:24;;;;;;;7.22;1.52;;;;;;;;;;5054372;28;20493;-77
2022/09/25 09:35:12;;;;;;;6.45;1.13;;;;;;;;;;5059294;28;20025;-77
2022/09/25 09:37:39;;;;;;;5.30;1.13;;;;;;;;;;5059452;28;20395;-78
2022/09/25 09:40:25;;;;;;;2.97;1.35;;;;;;;;;;5057597;28;20033;-79
2022/09/25 09:43:03;;;;;;;3.88;1.02;;;;;;;;;;5056077;28;20657;-80
2022/09/25 09:45:31;;;;;;;4.20;1.08;;;;;;;;;;5056761;28;20082;-77
2022/09/25 09:48:09;;;;;;;4.80;1.13;;;;;;;;;;5055456;28;20048;-77
2022/09/25 09:50:54;;;;;;;7.57;1.30;;;;;;;;;;5057946;28;20102;-78
2022/09/25 09:53:28;;;;;;;4.00;1.13;;;;;;;;;;5058567;28;20028;-78
2022/09/25 09:56:00;;;;;;;10.25;1.23;;;;;;;;;;5057885;28;20033;-78
2022/09/25 09:58:49;;;;;;;5.45;1.23;;;;;;;;;;5058621;28;20021;-79
2022/09/25 10:01:18;;;;;;;11.57;1.95;;;;;;;;;;5063065;28;20037;-79
2022/09/25 10:03:45;;;;;;;8.82;1.83;;;;;;;;;;5060764;28;20730;-79
2022/09/25 10:06:13;;;;;;;6.65;1.27;;;;;;;;;;5063571;28;20029;-80
2022/09/25 10:08:40;;;;;;;3.85;0.60;;;;;;;;;;5061065;28;20020;-80
2022/09/25 10:11:14;;;;;;;7.05;1.10;;;;;;;;;;5059305;28;20123;-79
2022/09/25 10:13:40;;;;;;;9.60;1.55;;;;;;;;;;5060627;28;20031;-80
2022/09/25 10:16:10;;;;;;;7.57;1.15;;;;;;;;;;5064024;28;20061;-78
2022/09/25 10:18:42;;;;;;;17.45;1.88;;;;;;;;;;5060294;28;20024;-80
2022/09/25 10:21:17;;;;;;;5.47;1.13;;;;;;;;;;5059329;28;20032;-79
2022/09/25 10:23:45;;;;;;;22.92;2.78;;;;;;;;;;5058165;28;20033;-78
2022/09/25 10:26:29;;;;;;;7.18;1.48;;;;;;;;;;5064665;28;20035;-81
2022/09/25 10:28:58;;;;;;;33.95;2.45;;;;;;;;;;5063590;28;20393;-81
2022/09/25 10:31:29;;;;;;;8.80;1.30;;;;;;;;;;5057023;28;20037;-78
2022/09/25 10:33:58;;;;;;;7.95;1.15;;;;;;;;;;5052868;28;20033;-78
2022/09/25 10:36:35;;;;;;;8.33;2.07;;;;;;;;;;5056467;28;20107;-78
2022/09/25 10:39:03;;;;;;;16.75;1.75;;;;;;;;;;5056638;28;20032;-77
2022/09/25 10:41:31;;;;;;;3.92;1.00;;;;;;;;;;5060094;28;20479;-77
2022/09/25 10:44:01;;;;;;;3.40;1.08;;;;;;;;;;5056937;28;20028;-77
2022/09/25 10:52:10;;;;;;;4.07;0.70;;;;;;;;;;5059610;28;20059;-78
2022/09/25 10:54:38;;;;;;;3.95;0.85;;;;;;;;;;5057233;28;20487;-78
2022/09/25 10:57:24;;;;;;;5.57;1.15;;;;;;;;;;5058801;28;20024;-79
2022/09/25 10:59:51;;;;;;;3.03;0.70;;;;;;;;;;5058971;28;20032;-79
2022/09/25 11:02:27;;;;;;;6.50;0.93;;;;;;;;;;5058860;28;20032;-78
2022/09/25 11:04:54;;;;;;;7.60;1.15;;;;;;;;;;5055706;28;20480;-77
2022/09/25 11:07:26;;;;;;;7.53;1.23;;;;;;;;;;5054027;28;20021;-78
2022/09/25 11:09:52;;;;;;;6.18;1.33;;;;;;;;;;5057206;28;20058;-78
2022/09/25 11:12:23;;;;;;;7.32;0.80;;;;;;;;;;5058272;28;20727;-77
2022/09/25 11:14:57;;;;;;;4.25;1.10;;;;;;;;;;5057583;28;20025;-79
2022/09/25 11:17:40;;;;;;;6.65;1.38;;;;;;;;;;5059793;28;20056;-78
2022/09/25 11:20:15;;;;;;;11.43;1.83;;;;;;;;;;5059303;28;20025;-76
2022/09/25 11:22:43;;;;;;;8.70;1.10;;;;;;;;;;5053428;28;20175;-76
2022/09/25 11:25:15;;;;;;;4.55;1.55;;;;;;;;;;5057027;28;20028;-77
2022/09/25 11:28:08;;;;;;;9.20;1.30;;;;;;;;;;5057860;28;20095;-78
2022/09/25 11:30:47;;;;;;;5.00;1.00;;;;;;;;;;5055572;28;20052;-77
2022/09/25 11:33:31;;;;;;;6.60;1.00;;;;;;;;;;5061015;28;20391;-77
2022/09/25 11:35:57;;;;;;;14.40;1.30;;;;;;;;;;5058633;28;20029;-79
2022/09/25 11:41:10;;;;;;;1.55;0.40;;;;;;;;;;5059768;28;20111;-79
2022/09/25 11:41:21;;;;;;;9.23;1.45;;;;;;;;;;5057000;28;20502;-79
2022/09/25 11:44:06;;;;;;;3.50;0.60;;;;;;;;;;5056723;28;20494;-78
2022/09/25 11:46:34;;;;;;;8.32;2.08;;;;;;;;;;5056634;28;20032;-78
2022/09/25 11:49:09;;;;;;;10.10;1.77;;;;;;;;;;5057392;28;20025;-78
2022/09/25 11:51:47;;;;;;;8.68;1.50;;;;;;;;;;5055764;28;20036;-78
2022/09/25 11:54:23;;;;;;;5.13;0.98;;;;;;;;;;5057008;28;20035;-77
2022/09/25 11:56:56;;;;;;;5.97;1.20;;;;;;;;;;5060679;28;20021;-79
2022/09/25 12:00:00;;;;;;;11.27;1.60;;;;;;;;;;5058419;28;20561;-76
2022/09/25 12:02:29;;;;;;;5.70;1.10;;;;;;;;;;5052770;28;20044;-76
2022/09/25 12:05:05;;;;;;;7.53;1.20;;;;;;;;;;5055276;28;20126;-77
2022/09/25 12:07:47;;;;;;;6.25;0.80;;;;;;;;;;5046661;28;20040;-78
2022/09/25 12:10:23;;;;;;;6.50;1.35;;;;;;;;;;5052778;28;20028;-78
2022/09/25 12:12:49;;;;;;;4.90;0.90;;;;;;;;;;5055284;28;20051;-78
2022/09/25 12:15:21;;;;;;;4.10;0.90;;;;;;;;;;5058467;28;20562;-78
2022/09/25 12:18:06;;;;;;;2.75;1.05;;;;;;;;;;5060438;28;20025;-77
2022/09/25 12:20:55;;;;;;;4.90;0.90;;;;;;;;;;5058851;28;20040;-79
2022/09/25 12:23:30;;;;;;;2.28;0.55;;;;;;;;;;5056778;28;20052;-78
2022/09/25 12:26:15;;;;;;;6.50;1.20;;;;;;;;;;5055499;28;20080;-78
2022/09/25 12:28:41;;;;;;;7.05;1.27;;;;;;;;;;5060454;28;20039;-77
2022/09/25 12:31:25;;;;;;;3.70;1.33;;;;;;;;;;5058779;28;20039;-77
2022/09/25 12:33:59;;;;;;;4.60;1.05;;;;;;;;;;5056487;28;20674;-78
2022/09/25 12:36:35;;;;;;;6.38;1.13;;;;;;;;;;5064139;28;20028;-78
2022/09/25 12:39:03;;;;;;;13.23;1.60;;;;;;;;;;5063036;28;20033;-77
2022/09/25 12:41:35;;;;;;;10.50;1.20;;;;;;;;;;5064134;28;20048;-79
2022/09/25 12:44:04;;;;;;;6.43;1.25;;;;;;;;;;5068425;28;20127;-76
2022/09/25 12:46:50;;;;;;;13.30;2.38;;;;;;;;;;5066602;28;20028;-76
2022/09/25 12:49:19;;;;;;;15.60;2.58;;;;;;;;;;5063796;28;20028;-78
2022/09/25 12:51:48;;;;;;;19.60;3.70;;;;;;;;;;5055957;28;20046;-77
2022/09/25 12:54:15;;;;;;;13.18;1.73;;;;;;;;;;5054448;28;20028;-78
2022/09/25 12:56:54;;;;;;;18.83;3.10;;;;;;;;;;5056494;28;20095;-80
2022/09/25 12:59:28;;;;;;;14.82;2.58;;;;;;;;;;5054762;28;20052;-78
2022/09/25 13:02:03;;;;;;;15.60;2.33;;;;;;;;;;5055382;28;20076;-79
2022/09/25 13:04:45;;;;;;;18.25;2.65;;;;;;;;;;5058924;28;20134;-76
2022/09/25 13:07:21;;;;;;;5.32;1.38;;;;;;;;;;5055275;28;20056;-77
2022/09/25 13:09:48;;;;;;;7.85;1.23;;;;;;;;;;5057224;28;20503;-76
2022/09/25 13:12:26;;;;;;;4.57;0.82;;;;;;;;;;5055075;28;20561;-77
2022/09/25 13:15:06;;;;;;;2.42;0.73;;;;;;;;;;5055920;28;20110;-76
2022/09/25 13:17:32;;;;;;;4.38;1.00;;;;;;;;;;5056688;28;20024;-77
2022/09/25 13:20:19;;;;;;;9.57;1.52;;;;;;;;;;5051937;28;20033;-76
2022/09/25 13:22:45;;;;;;;8.35;1.75;;;;;;;;;;5054812;28;20052;-76
2022/09/25 13:25:16;;;;;;;6.75;1.77;;;;;;;;;;5053190;28;20025;-77
2022/09/25 13:27:44;;;;;;;7.95;1.10;;;;;;;;;;5058654;28;20025;-75
2022/09/25 13:30:19;;;;;;;7.20;1.13;;;;;;;;;;5060018;28;20055;-76
2022/09/25 13:32:53;;;;;;;7.82;1.30;;;;;;;;;;5059468;28;20031;-76
2022/09/25 13:35:20;;;;;;;5.25;0.60;;;;;;;;;;5065282;28;20029;-74
2022/09/25 13:37:46;;;;;;;12.07;2.13;;;;;;;;;;5058641;28;20064;-76
2022/09/25 13:43:24;;;;;;;4.78;0.70;;;;;;;;;;5067304;28;20051;-76
2022/09/25 13:46:09;;;;;;;3.85;0.70;;;;;;;;;;5060308;28;20110;-76
2022/09/25 13:48:36;;;;;;;5.22;0.82;;;;;;;;;;5059109;28;20024;-75
2022/09/25 13:51:17;;;;;;;5.63;1.02;;;;;;;;;;5061866;28;20507;-77
2022/09/25 13:53:57;;;;;;;8.98;0.90;;;;;;;;;;5059933;28;20095;-75
2022/09/25 13:56:24;;;;;;;5.40;1.10;;;;;;;;;;5060872;28;20553;-75
2022/09/25 13:59:01;;;;;;;9.00;1.42;;;;;;;;;;5057397;28;20083;-76
2022/09/25 14:01:52;;;;;;;20.27;2.03;;;;;;;;;;5058875;28;20962;-77
2022/09/25 14:04:30;;;;;;;4.63;0.80;;;;;;;;;;5056659;28;20159;-76
2022/09/25 14:07:03;;;;;;;14.63;2.35;;;;;;;;;;5057781;28;20025;-76
2022/09/25 14:09:29;;;;;;;7.47;0.98;;;;;;;;;;5061581;28;20139;-75
2022/09/25 14:12:03;;;;;;;14.68;2.15;;;;;;;;;;5058101;28;20147;-78
2022/09/25 14:14:33;;;;;;;21.23;1.73;;;;;;;;;;5051991;28;20483;-80
2022/09/25 14:17:00;;;;;;;16.48;2.17;;;;;;;;;;5051977;28;20032;-77
2022/09/25 14:19:28;;;;;;;5.68;0.77;;;;;;;;;;5050468;28;20073;-77
2022/09/25 14:21:54;;;;;;;18.27;3.08;;;;;;;;;;5051978;28;20052;-75
2022/09/25 14:24:23;;;;;;;10.40;1.33;;;;;;;;;;5051320;28;20483;-74
2022/09/25 14:26:52;;;;;;;14.95;1.52;;;;;;;;;;5051216;28;20047;-73
2022/09/25 14:29:21;;;;;;;4.55;0.70;;;;;;;;;;5051345;28;20048;-73
2022/09/25 14:32:13;;;;;;;9.75;0.80;;;;;;;;;;5051765;28;20049;-74
2022/09/25 14:34:53;;;;;;;11.43;1.73;;;;;;;;;;5060631;28;20532;-75
2022/09/25 14:37:34;;;;;;;2.20;0.50;;;;;;;;;;5071619;28;20506;-76
2022/09/25 14:40:18;;;;;;;2.80;0.40;;;;;;;;;;5071613;28;20020;-76
2022/09/25 14:42:52;;;;;;;1.08;0.30;;;;;;;;;;5070367;28;20021;-75
2022/09/25 14:45:33;;;;;;;3.20;0.60;;;;;;;;;;5056450;28;20033;-74
2022/09/25 14:48:00;;;;;;;1.55;0.50;;;;;;;;;;5072734;28;20651;-76
2022/09/25 14:50:29;;;;;;;2.80;0.60;;;;;;;;;;5077874;28;20032;-76
2022/09/25 14:52:57;;;;;;;5.93;0.90;;;;;;;;;;5079140;28;20028;-73
2022/09/25 14:55:25;;;;;;;9.90;1.67;;;;;;;;;;5087124;28;20039;-77
2022/09/25 14:57:52;;;;;;;8.43;0.98;;;;;;;;;;5074450;28;20024;-75
2022/09/25 15:00:23;;;;;;;6.70;1.05;;;;;;;;;;5083887;28;20028;-75
2022/09/25 15:02:50;;;;;;;2.00;0.60;;;;;;;;;;5082770;28;20115;-75
2022/09/25 15:05:28;;;;;;;3.45;0.50;;;;;;;;;;5075870;28;20024;-75
2022/09/25 15:07:57;;;;;;;2.83;0.70;;;;;;;;;;5051309;28;20410;-74
2022/09/25 15:10:37;;;;;;;2.63;0.67;;;;;;;;;;5066214;28;20885;-73
2022/09/25 15:13:08;;;;;;;1.20;0.40;;;;;;;;;;5077760;28;20035;-74
2022/09/25 15:15:35;;;;;;;2.35;0.43;;;;;;;;;;5086957;28;20028;-75
2022/09/25 15:18:01;;;;;;;2.17;0.43;;;;;;;;;;5073470;28;20024;-74
2022/09/25 15:20:34;;;;;;;3.22;0.40;;;;;;;;;;5080515;28;20032;-74